Time;durP1;ratioP1;P1;durP2;ratioP2;P2;SDS_P1;SDS_P2;PMS_P1;PMS_P2;Temp;Humidity;BMP_temperature;BMP_pressure;BME280_temperature;BME280_humidity;BME280_pressure;Samples;Min_cycle;Max_cycle;Signal;HPM_P1;HPM_P2
2021/12/02 00:02:08;;;;;;;11.85;3.58;;;;;;;;;;5065779;28;20033;-80
2021/12/02 00:04:36;;;;;;;10.30;3.40;;;;;;;;;;5064520;28;20040;-81
2021/12/02 00:07:04;;;;;;;12.93;3.28;;;;;;;;;;5065953;28;20076;-81
2021/12/02 00:09:30;;;;;;;8.68;2.97;;;;;;;;;;5067379;28;20072;-80
2021/12/02 00:11:56;;;;;;;9.63;3.15;;;;;;;;;;5048376;28;20033;-80
2021/12/02 00:14:26;;;;;;;11.25;3.05;;;;;;;;;;5063693;28;20062;-81
2021/12/02 00:17:04;;;;;;;9.57;3.47;;;;;;;;;;5062521;28;20522;-81
2021/12/02 00:22:15;;;;;;;13.23;2.78;;;;;;;;;;5064118;28;20033;-82
2021/12/02 00:24:41;;;;;;;16.25;2.78;;;;;;;;;;5064364;28;20453;-81
2021/12/02 00:27:08;;;;;;;8.00;3.08;;;;;;;;;;5047675;28;20047;-81
2021/12/02 00:29:34;;;;;;;13.43;2.80;;;;;;;;;;5048176;28;20053;-81
2021/12/02 00:32:02;;;;;;;10.25;2.95;;;;;;;;;;5065714;28;20101;-82
2021/12/02 00:34:28;;;;;;;15.70;2.80;;;;;;;;;;5048998;28;20038;-81
2021/12/02 00:36:54;;;;;;;13.57;2.83;;;;;;;;;;5048133;28;20041;-80
2021/12/02 00:39:20;;;;;;;11.93;2.83;;;;;;;;;;5063517;28;20044;-81
2021/12/02 00:41:46;;;;;;;19.60;2.80;;;;;;;;;;5064047;28;20073;-80
2021/12/02 00:44:12;;;;;;;15.63;2.75;;;;;;;;;;5063736;28;20076;-81
2021/12/02 00:46:38;;;;;;;9.32;2.53;;;;;;;;;;5064866;28;20056;-80
2021/12/02 00:49:06;;;;;;;11.15;3.00;;;;;;;;;;5065013;28;20044;-81
2021/12/02 00:51:32;;;;;;;14.25;2.97;;;;;;;;;;5065905;28;20044;-81
2021/12/02 00:54:03;;;;;;;7.53;2.33;;;;;;;;;;5064501;28;20057;-82
2021/12/02 00:56:29;;;;;;;8.43;2.28;;;;;;;;;;5050400;28;20053;-82
2021/12/02 00:58:55;;;;;;;8.15;2.63;;;;;;;;;;5049681;28;20048;-83
2021/12/02 01:01:22;;;;;;;15.73;3.10;;;;;;;;;;5068387;28;20040;-82
2021/12/02 01:03:49;;;;;;;13.73;2.53;;;;;;;;;;5069443;28;20099;-82
2021/12/02 01:06:15;;;;;;;10.98;2.92;;;;;;;;;;5071923;28;20041;-82
2021/12/02 01:08:41;;;;;;;10.55;2.72;;;;;;;;;;5071029;28;20047;-81
2021/12/02 01:11:08;;;;;;;12.70;2.90;;;;;;;;;;5068844;28;20096;-80
2021/12/02 01:13:34;;;;;;;12.40;2.83;;;;;;;;;;5069025;28;20028;-81
2021/12/02 01:16:00;;;;;;;11.98;2.58;;;;;;;;;;5069251;28;20063;-81
2021/12/02 01:18:27;;;;;;;11.57;3.03;;;;;;;;;;5068117;28;20068;-81
2021/12/02 01:27:00;;;;;;;14.88;3.05;;;;;;;;;;5069507;28;20040;-79
2021/12/02 01:29:26;;;;;;;16.10;3.33;;;;;;;;;;5069469;28;20037;-79
2021/12/02 01:31:53;;;;;;;21.50;3.58;;;;;;;;;;5053119;28;20037;-79
2021/12/02 01:34:23;;;;;;;10.90;3.50;;;;;;;;;;5054258;28;20094;-79
2021/12/02 01:36:50;;;;;;;8.70;3.03;;;;;;;;;;5069920;28;20205;-77
2021/12/02 01:39:16;;;;;;;13.55;3.35;;;;;;;;;;5070279;28;20033;-78
2021/12/02 01:41:46;;;;;;;14.07;3.20;;;;;;;;;;5052475;28;20342;-78
2021/12/02 01:44:13;;;;;;;13.95;3.45;;;;;;;;;;5052262;28;20041;-78
2021/12/02 01:46:39;;;;;;;11.82;3.45;;;;;;;;;;5069354;28;20361;-78
2021/12/02 01:49:05;;;;;;;10.60;3.35;;;;;;;;;;5068074;28;20041;-78
2021/12/02 01:51:37;;;;;;;14.30;3.00;;;;;;;;;;5052964;28;20033;-79
2021/12/02 01:54:06;;;;;;;11.38;3.38;;;;;;;;;;5052965;28;20036;-79
2021/12/02 01:56:32;;;;;;;15.13;3.30;;;;;;;;;;5053114;28;20045;-77
2021/12/02 01:59:00;;;;;;;8.15;2.92;;;;;;;;;;5069782;28;20049;-79
2021/12/02 02:01:27;;;;;;;12.80;3.22;;;;;;;;;;5068921;28;20067;-80
2021/12/02 02:03:53;;;;;;;14.07;3.72;;;;;;;;;;5072771;28;20369;-81
2021/12/02 02:06:30;;;;;;;10.45;3.10;;;;;;;;;;5069688;28;20044;-81
2021/12/02 02:08:57;;;;;;;12.25;3.55;;;;;;;;;;5070299;28;20044;-80
2021/12/02 02:11:27;;;;;;;11.55;3.80;;;;;;;;;;5070352;28;20037;-81
2021/12/02 02:13:53;;;;;;;12.00;3.67;;;;;;;;;;5063425;28;20059;-78
2021/12/02 02:16:19;;;;;;;11.05;3.78;;;;;;;;;;5078952;28;20053;-81
2021/12/02 02:18:45;;;;;;;15.40;4.10;;;;;;;;;;5053677;28;20051;-81
2021/12/02 02:21:14;;;;;;;9.85;3.40;;;;;;;;;;5068979;28;20037;-80
2021/12/02 02:23:49;;;;;;;21.77;5.05;;;;;;;;;;5068448;28;20048;-80
2021/12/02 02:26:17;;;;;;;11.10;4.32;;;;;;;;;;5068951;28;20056;-80
2021/12/02 02:28:43;;;;;;;14.05;4.18;;;;;;;;;;5069343;28;20432;-82
2021/12/02 02:31:09;;;;;;;12.68;4.38;;;;;;;;;;5051771;28;20037;-82
2021/12/02 02:33:38;;;;;;;12.13;3.75;;;;;;;;;;5069373;28;20036;-81
2021/12/02 02:36:08;;;;;;;9.40;4.25;;;;;;;;;;5071650;28;20037;-81
2021/12/02 02:38:34;;;;;;;15.82;5.22;;;;;;;;;;5053472;28;20048;-81
2021/12/02 02:41:02;;;;;;;14.75;5.10;;;;;;;;;;5069622;28;20037;-81
2021/12/02 02:43:31;;;;;;;11.25;4.57;;;;;;;;;;5069531;28;20040;-81
2021/12/02 02:45:57;;;;;;;10.70;4.18;;;;;;;;;;5067410;28;20052;-80
2021/12/02 02:48:23;;;;;;;11.93;4.28;;;;;;;;;;5067157;28;20040;-80
2021/12/02 02:50:49;;;;;;;16.60;4.88;;;;;;;;;;5068357;28;20037;-81
2021/12/02 02:53:18;;;;;;;16.70;4.72;;;;;;;;;;5069173;28;20052;-81
2021/12/02 02:55:51;;;;;;;10.65;4.78;;;;;;;;;;5078003;28;20111;-82
2021/12/02 03:00:53;;;;;;;11.05;4.53;;;;;;;;;;5069595;28;19962;-81
2021/12/02 03:03:30;;;;;;;13.75;3.80;;;;;;;;;;5068038;28;20064;-78
2021/12/02 03:08:48;;;;;;;11.00;4.72;;;;;;;;;;5067308;28;20047;-78
2021/12/02 03:11:16;;;;;;;14.25;5.22;;;;;;;;;;5053168;28;20052;-78
2021/12/02 03:13:50;;;;;;;11.30;4.60;;;;;;;;;;5050777;28;20041;-81
2021/12/02 03:16:49;;;;;;;15.23;4.05;;;;;;;;;;5066178;28;20049;-81
2021/12/02 03:19:08;;;;;;;11.35;4.20;;;;;;;;;;5062526;28;20072;-80
2021/12/02 03:21:34;;;;;;;17.65;3.75;;;;;;;;;;5048725;28;20048;-81
2021/12/02 03:24:00;;;;;;;12.65;4.32;;;;;;;;;;5062731;28;20060;-82
2021/12/02 03:26:27;;;;;;;7.22;3.38;;;;;;;;;;5047829;28;20037;-81
2021/12/02 03:28:53;;;;;;;10.10;3.47;;;;;;;;;;5064454;28;20037;-80
2021/12/02 03:31:19;;;;;;;10.43;4.65;;;;;;;;;;5048806;28;20037;-81
2021/12/02 03:33:45;;;;;;;12.35;5.20;;;;;;;;;;5065937;28;20036;-80
2021/12/02 03:36:11;;;;;;;14.07;5.20;;;;;;;;;;5064277;28;20384;-82
2021/12/02 03:38:37;;;;;;;16.08;5.38;;;;;;;;;;5065369;28;20072;-81
2021/12/02 03:41:03;;;;;;;13.25;5.75;;;;;;;;;;5064624;28;20033;-81
2021/12/02 03:43:40;;;;;;;14.15;5.78;;;;;;;;;;5071788;28;20025;-81
2021/12/02 03:46:06;;;;;;;14.43;5.88;;;;;;;;;;5074688;28;20024;-80
2021/12/02 03:48:32;;;;;;;14.77;5.55;;;;;;;;;;5062907;28;20041;-78
2021/12/02 03:50:58;;;;;;;11.40;5.80;;;;;;;;;;5047468;28;20037;-78
2021/12/02 03:53:24;;;;;;;18.55;5.97;;;;;;;;;;5065443;28;20112;-78
2021/12/02 03:55:50;;;;;;;10.30;5.55;;;;;;;;;;5048650;28;20516;-79
2021/12/02 03:58:16;;;;;;;15.60;6.20;;;;;;;;;;5065106;28;20037;-80
2021/12/02 04:00:42;;;;;;;11.43;6.50;;;;;;;;;;5066552;28;20045;-79
2021/12/02 04:03:08;;;;;;;12.50;5.72;;;;;;;;;;5066406;28;20361;-79
2021/12/02 04:05:34;;;;;;;11.25;6.65;;;;;;;;;;5066100;28;20032;-78
2021/12/02 04:08:00;;;;;;;17.33;7.43;;;;;;;;;;5048997;28;20484;-81
2021/12/02 04:10:26;;;;;;;16.05;7.80;;;;;;;;;;5065583;28;20056;-78
2021/12/02 04:13:12;;;;;;;16.05;8.02;;;;;;;;;;5065995;28;20098;-80
2021/12/02 04:15:42;;;;;;;15.95;8.13;;;;;;;;;;5067916;28;20085;-81
2021/12/02 04:18:08;;;;;;;15.23;8.55;;;;;;;;;;5065297;28;20068;-79
2021/12/02 04:20:34;;;;;;;14.85;7.70;;;;;;;;;;5066625;28;20041;-78
2021/12/02 04:23:00;;;;;;;18.15;9.88;;;;;;;;;;5066260;28;20129;-79
2021/12/02 04:25:26;;;;;;;12.77;8.50;;;;;;;;;;5049771;28;20051;-79
2021/12/02 04:27:52;;;;;;;15.35;8.63;;;;;;;;;;5067264;28;20037;-79
2021/12/02 04:30:19;;;;;;;16.27;8.40;;;;;;;;;;5068509;28;20098;-80
2021/12/02 04:32:46;;;;;;;21.35;9.55;;;;;;;;;;5067724;28;20060;-80
2021/12/02 04:35:12;;;;;;;15.10;8.55;;;;;;;;;;5067953;28;20052;-79
2021/12/02 04:37:38;;;;;;;15.45;8.38;;;;;;;;;;5072049;28;20060;-78
2021/12/02 04:40:05;;;;;;;16.02;8.07;;;;;;;;;;5071240;28;20096;-81
2021/12/02 04:42:31;;;;;;;12.25;7.60;;;;;;;;;;5072186;28;20312;-82
2021/12/02 04:44:57;;;;;;;12.90;7.82;;;;;;;;;;5072084;28;20043;-81
2021/12/02 04:47:23;;;;;;;14.30;7.72;;;;;;;;;;5070739;28;20072;-80
2021/12/02 04:49:49;;;;;;;17.88;8.90;;;;;;;;;;5071273;28;20037;-81
2021/12/02 04:52:15;;;;;;;14.27;9.38;;;;;;;;;;5055368;28;20037;-78
2021/12/02 04:54:41;;;;;;;15.27;8.70;;;;;;;;;;5072954;28;20062;-78
2021/12/02 04:57:07;;;;;;;13.70;8.98;;;;;;;;;;5070998;28;20464;-78
2021/12/02 04:59:33;;;;;;;17.40;9.98;;;;;;;;;;5071803;28;20066;-78
2021/12/02 05:01:59;;;;;;;12.90;8.73;;;;;;;;;;5054545;28;20041;-78
2021/12/02 05:04:25;;;;;;;14.77;8.50;;;;;;;;;;5071305;28;20051;-79
2021/12/02 05:06:51;;;;;;;13.88;9.27;;;;;;;;;;5070881;28;20127;-78
2021/12/02 05:09:17;;;;;;;17.10;9.68;;;;;;;;;;5054300;28;20049;-79
2021/12/02 05:11:43;;;;;;;18.85;10.07;;;;;;;;;;5053832;28;20452;-81
2021/12/02 05:14:09;;;;;;;20.70;10.15;;;;;;;;;;5071216;28;20064;-79
2021/12/02 05:16:35;;;;;;;15.02;9.02;;;;;;;;;;5071021;28;20052;-82
2021/12/02 05:19:02;;;;;;;18.27;9.85;;;;;;;;;;5072711;28;20047;-81
2021/12/02 05:21:28;;;;;;;16.77;9.90;;;;;;;;;;5076731;28;20051;-83
2021/12/02 05:23:54;;;;;;;18.33;10.95;;;;;;;;;;5069415;28;20108;-80
2021/12/02 05:26:23;;;;;;;17.27;10.45;;;;;;;;;;5070167;28;20100;-82
2021/12/02 05:28:50;;;;;;;19.75;10.77;;;;;;;;;;5080825;28;20053;-77
2021/12/02 05:31:16;;;;;;;19.33;10.27;;;;;;;;;;5080128;28;20041;-80
2021/12/02 05:33:42;;;;;;;18.92;10.13;;;;;;;;;;5071437;28;20036;-81
2021/12/02 05:36:08;;;;;;;21.92;10.20;;;;;;;;;;5069431;28;20072;-82
2021/12/02 05:38:34;;;;;;;15.38;10.25;;;;;;;;;;5069739;28;20048;-79
2021/12/02 05:41:00;;;;;;;15.43;9.98;;;;;;;;;;5068291;28;20061;-79
2021/12/02 05:43:26;;;;;;;26.65;10.77;;;;;;;;;;5051681;28;20037;-78
2021/12/02 05:45:52;;;;;;;22.00;10.02;;;;;;;;;;5068029;28;20041;-79
2021/12/02 05:48:18;;;;;;;17.05;9.65;;;;;;;;;;5069272;28;20123;-80
2021/12/02 05:50:44;;;;;;;15.18;9.38;;;;;;;;;;5069814;28;20060;-79
2021/12/02 05:53:10;;;;;;;16.35;9.63;;;;;;;;;;5069282;28;20041;-79
2021/12/02 05:55:36;;;;;;;19.80;9.02;;;;;;;;;;5069834;28;20075;-79
2021/12/02 05:58:02;;;;;;;18.77;8.45;;;;;;;;;;5069716;28;20033;-79
2021/12/02 06:00:28;;;;;;;13.57;7.97;;;;;;;;;;5052606;28;20041;-79
2021/12/02 06:02:54;;;;;;;16.05;8.38;;;;;;;;;;5051995;28;20123;-79
2021/12/02 06:05:20;;;;;;;13.15;8.43;;;;;;;;;;5069243;28;20469;-79
2021/12/02 06:07:49;;;;;;;13.55;8.10;;;;;;;;;;5068770;28;20048;-80
2021/12/02 06:10:16;;;;;;;17.08;8.43;;;;;;;;;;5071480;28;20055;-80
2021/12/02 06:12:42;;;;;;;12.63;8.00;;;;;;;;;;5054925;28;20096;-79
2021/12/02 06:15:08;;;;;;;10.90;7.32;;;;;;;;;;5070013;28;20044;-79
2021/12/02 06:17:36;;;;;;;12.77;6.80;;;;;;;;;;5071462;28;20051;-81
2021/12/02 06:20:02;;;;;;;12.05;7.55;;;;;;;;;;5070748;28;20040;-80
2021/12/02 06:22:28;;;;;;;14.50;8.00;;;;;;;;;;5069639;28;20143;-79
2021/12/02 06:27:56;;;;;;;12.10;7.88;;;;;;;;;;5071528;28;20056;-79
2021/12/02 06:30:23;;;;;;;17.17;7.68;;;;;;;;;;5066676;28;20124;-78
2021/12/02 06:32:49;;;;;;;18.73;8.63;;;;;;;;;;5066690;28;20036;-80
2021/12/02 06:35:15;;;;;;;11.95;7.32;;;;;;;;;;5069269;28;20088;-80
2021/12/02 06:37:41;;;;;;;11.63;7.70;;;;;;;;;;5069507;28;20051;-80
2021/12/02 06:40:07;;;;;;;14.45;7.32;;;;;;;;;;5052102;28;20041;-78
2021/12/02 06:42:33;;;;;;;14.90;7.78;;;;;;;;;;5068730;28;20045;-79
2021/12/02 06:44:59;;;;;;;12.15;7.35;;;;;;;;;;5068207;28;20075;-79
2021/12/02 06:47:35;;;;;;;14.52;8.23;;;;;;;;;;5068058;28;20468;-79
2021/12/02 06:50:03;;;;;;;15.68;8.38;;;;;;;;;;5066109;28;20064;-80
2021/12/02 06:52:29;;;;;;;13.60;8.23;;;;;;;;;;5065811;28;20041;-79
2021/12/02 06:54:55;;;;;;;20.20;8.45;;;;;;;;;;5065393;28;20057;-79
2021/12/02 06:57:22;;;;;;;17.52;9.00;;;;;;;;;;5065086;28;20044;-79
2021/12/02 06:59:48;;;;;;;14.98;9.95;;;;;;;;;;5063901;28;20033;-79
2021/12/02 07:02:14;;;;;;;16.80;10.00;;;;;;;;;;5064088;28;20036;-79
2021/12/02 07:04:40;;;;;;;19.42;9.93;;;;;;;;;;5063877;28;20037;-78
2021/12/02 07:07:06;;;;;;;22.58;10.02;;;;;;;;;;5063406;28;20041;-79
2021/12/02 07:09:32;;;;;;;15.00;10.07;;;;;;;;;;5064160;28;20045;-78
2021/12/02 07:11:58;;;;;;;20.95;11.45;;;;;;;;;;5065389;28;20112;-78
2021/12/02 07:14:25;;;;;;;15.05;10.60;;;;;;;;;;5047333;28;20073;-78
2021/12/02 07:16:52;;;;;;;21.10;11.82;;;;;;;;;;5063143;28;20392;-78
2021/12/02 07:19:18;;;;;;;22.33;12.18;;;;;;;;;;5063312;28;20037;-78
2021/12/02 07:21:44;;;;;;;18.48;11.00;;;;;;;;;;5062419;28;20045;-77
2021/12/02 07:24:11;;;;;;;19.95;11.93;;;;;;;;;;5063100;28;20100;-79
2021/12/02 07:26:41;;;;;;;16.40;10.18;;;;;;;;;;5061802;28;20041;-78
2021/12/02 07:29:11;;;;;;;15.13;10.20;;;;;;;;;;5062725;28;20049;-79
2021/12/02 07:31:37;;;;;;;16.60;11.10;;;;;;;;;;5049368;28;20040;-78
2021/12/02 07:34:03;;;;;;;17.95;12.02;;;;;;;;;;5066683;28;20048;-78
2021/12/02 07:36:29;;;;;;;16.45;11.90;;;;;;;;;;5063648;28;20044;-79
2021/12/02 07:38:55;;;;;;;22.80;12.85;;;;;;;;;;5063576;28;20043;-79
2021/12/02 07:41:21;;;;;;;22.92;13.38;;;;;;;;;;5062498;28;20040;-79
2021/12/02 07:43:47;;;;;;;20.40;14.15;;;;;;;;;;5063758;28;20120;-79
2021/12/02 07:46:13;;;;;;;18.40;14.23;;;;;;;;;;5063112;28;20084;-79
2021/12/02 07:48:39;;;;;;;30.45;17.00;;;;;;;;;;5063025;28;20071;-78
2021/12/02 07:51:09;;;;;;;28.65;17.63;;;;;;;;;;5062427;28;20099;-79
2021/12/02 07:53:36;;;;;;;27.30;17.58;;;;;;;;;;5044523;28;20044;-79
2021/12/02 07:56:03;;;;;;;26.15;17.67;;;;;;;;;;5046098;28;20037;-79
2021/12/02 07:58:29;;;;;;;28.95;18.08;;;;;;;;;;5066195;28;20051;-82
2021/12/02 08:00:57;;;;;;;31.45;17.70;;;;;;;;;;5052217;28;20041;-79
2021/12/02 08:03:23;;;;;;;28.48;19.08;;;;;;;;;;5066646;28;20041;-79
2021/12/02 08:05:49;;;;;;;34.03;18.95;;;;;;;;;;5066930;28;20044;-78
2021/12/02 08:08:15;;;;;;;27.55;17.58;;;;;;;;;;5066275;28;20037;-78
2021/12/02 08:10:41;;;;;;;27.77;18.80;;;;;;;;;;5064312;28;20143;-79
2021/12/02 08:13:07;;;;;;;26.25;17.17;;;;;;;;;;5064196;28;20067;-78
2021/12/02 08:15:33;;;;;;;28.10;18.70;;;;;;;;;;5064956;28;20056;-79
2021/12/02 08:17:59;;;;;;;30.13;20.35;;;;;;;;;;5065642;28;20449;-79
2021/12/02 08:20:26;;;;;;;28.80;16.73;;;;;;;;;;5064675;28;20105;-78
2021/12/02 08:22:52;;;;;;;24.10;16.05;;;;;;;;;;5048046;28;20045;-79
2021/12/02 08:25:20;;;;;;;20.98;14.43;;;;;;;;;;5065150;28;20115;-78
2021/12/02 08:27:46;;;;;;;23.80;14.43;;;;;;;;;;5064868;28;20052;-79
2021/12/02 08:30:12;;;;;;;25.70;14.90;;;;;;;;;;5065560;28;20049;-79
2021/12/02 08:32:41;;;;;;;22.77;13.77;;;;;;;;;;5065728;28;20041;-78
2021/12/02 08:35:08;;;;;;;24.73;14.40;;;;;;;;;;5064920;28;20033;-78
2021/12/02 08:37:37;;;;;;;26.20;15.52;;;;;;;;;;5071897;28;20037;-79
2021/12/02 08:40:04;;;;;;;21.13;13.70;;;;;;;;;;5066866;28;20057;-79
2021/12/02 08:42:32;;;;;;;19.40;11.93;;;;;;;;;;5071665;28;20029;-79
2021/12/02 08:44:58;;;;;;;18.20;11.60;;;;;;;;;;5078092;28;20063;-79
2021/12/02 08:47:27;;;;;;;12.63;9.02;;;;;;;;;;5078012;28;20058;-79
2021/12/02 08:49:53;;;;;;;11.60;7.75;;;;;;;;;;5053125;28;20096;-79
2021/12/02 08:52:23;;;;;;;14.60;9.10;;;;;;;;;;5067741;28;20041;-79
2021/12/02 08:54:52;;;;;;;11.57;7.90;;;;;;;;;;5064807;28;20048;-79
2021/12/02 08:57:18;;;;;;;15.60;8.65;;;;;;;;;;5047679;28;20044;-79
2021/12/02 08:59:44;;;;;;;13.05;7.45;;;;;;;;;;5046886;28;20088;-79
2021/12/02 09:02:11;;;;;;;13.70;7.47;;;;;;;;;;5063824;28;20044;-79
2021/12/02 09:04:37;;;;;;;10.23;6.97;;;;;;;;;;5049188;28;20041;-79
2021/12/02 09:07:03;;;;;;;10.43;6.18;;;;;;;;;;5068103;28;20097;-79
2021/12/02 09:09:29;;;;;;;11.90;6.63;;;;;;;;;;5070146;28;20041;-79
2021/12/02 09:11:57;;;;;;;14.68;5.90;;;;;;;;;;5071555;28;20021;-79
2021/12/02 09:14:23;;;;;;;8.98;5.20;;;;;;;;;;5071666;28;20037;-79
2021/12/02 09:16:50;;;;;;;6.22;4.53;;;;;;;;;;5072947;28;20093;-80
2021/12/02 09:19:17;;;;;;;8.32;4.22;;;;;;;;;;5066362;28;20032;-79
2021/12/02 09:21:43;;;;;;;6.68;3.75;;;;;;;;;;5065848;28;20037;-80
2021/12/02 09:24:11;;;;;;;5.95;3.83;;;;;;;;;;5067587;28;20056;-80
2021/12/02 09:26:37;;;;;;;6.13;3.60;;;;;;;;;;5068883;28;20427;-80
2021/12/02 09:29:03;;;;;;;6.35;3.17;;;;;;;;;;5076108;28;20059;-78
2021/12/02 09:31:29;;;;;;;4.97;2.90;;;;;;;;;;5072536;28;20041;-80
2021/12/02 09:33:55;;;;;;;7.10;2.28;;;;;;;;;;5070081;28;20041;-80
2021/12/02 09:36:21;;;;;;;8.02;2.97;;;;;;;;;;5069526;28;20037;-81
2021/12/02 09:38:47;;;;;;;4.07;2.63;;;;;;;;;;5068533;28;20033;-80
2021/12/02 09:41:13;;;;;;;7.20;3.40;;;;;;;;;;5050177;28;20040;-80
2021/12/02 09:43:39;;;;;;;5.90;3.40;;;;;;;;;;5073724;28;20093;-79
2021/12/02 09:46:05;;;;;;;16.55;4.28;;;;;;;;;;5047232;28;20040;-81
2021/12/02 09:48:33;;;;;;;7.07;3.78;;;;;;;;;;5064800;28;20045;-81
2021/12/02 09:56:28;;;;;;;7.93;3.95;;;;;;;;;;5067138;28;20093;-80
2021/12/02 09:58:56;;;;;;;7.05;4.00;;;;;;;;;;5065829;28;20037;-80
2021/12/02 10:01:27;;;;;;;6.93;3.78;;;;;;;;;;5064769;28;20040;-81
2021/12/02 10:04:02;;;;;;;6.55;3.65;;;;;;;;;;5065175;28;20033;-80
2021/12/02 10:06:31;;;;;;;6.60;3.55;;;;;;;;;;5064386;28;20108;-80
2021/12/02 10:11:29;;;;;;;7.47;3.83;;;;;;;;;;5067736;28;20032;-80
2021/12/02 10:14:02;;;;;;;7.67;4.07;;;;;;;;;;5063964;28;20063;-82
2021/12/02 10:16:31;;;;;;;;;;;;;;;;;;5064934;28;20306;-80
2021/12/02 10:19:02;;;;;;;8.00;2.85;;;;;;;;;;5065157;28;19909;-79
2021/12/02 10:21:35;;;;;;;5.68;2.88;;;;;;;;;;5065418;28;20087;-81
2021/12/02 10:24:11;;;;;;;5.05;2.78;;;;;;;;;;5064701;28;20045;-82
2021/12/02 10:26:41;;;;;;;5.13;3.10;;;;;;;;;;5065281;28;20048;-80
2021/12/02 10:29:08;;;;;;;5.97;3.35;;;;;;;;;;5048058;28;20106;-80
2021/12/02 10:31:36;;;;;;;6.70;4.30;;;;;;;;;;5062721;28;20471;-80
2021/12/02 10:34:03;;;;;;;7.95;5.15;;;;;;;;;;5062073;28;20040;-80
2021/12/02 10:36:36;;;;;;;9.90;6.22;;;;;;;;;;5062606;28;20441;-80
2021/12/02 10:39:08;;;;;;;13.35;7.03;;;;;;;;;;5046936;28;20033;-80
2021/12/02 10:41:34;;;;;;;12.63;7.40;;;;;;;;;;5062339;28;20043;-79
2021/12/02 10:44:05;;;;;;;11.25;7.72;;;;;;;;;;5062861;28;20356;-79
2021/12/02 10:46:31;;;;;;;13.52;7.70;;;;;;;;;;5046059;28;20500;-79
2021/12/02 10:48:57;;;;;;;12.88;7.03;;;;;;;;;;5073970;28;20045;-79
2021/12/02 10:51:53;;;;;;;13.18;7.75;;;;;;;;;;5062625;28;20029;-79
2021/12/02 10:54:19;;;;;;;11.60;6.75;;;;;;;;;;5053600;28;20043;-79
2021/12/02 10:56:46;;;;;;;11.07;6.75;;;;;;;;;;5063445;28;20037;-80
2021/12/02 10:59:22;;;;;;;8.13;5.90;;;;;;;;;;5046241;28;20041;-79
2021/12/02 11:01:49;;;;;;;11.32;6.70;;;;;;;;;;5045678;28;20041;-79
2021/12/02 11:04:15;;;;;;;9.10;6.65;;;;;;;;;;5045203;28;20037;-79
2021/12/02 11:06:41;;;;;;;16.90;6.65;;;;;;;;;;5061271;28;20044;-79
2021/12/02 11:09:23;;;;;;;12.25;6.60;;;;;;;;;;5045934;28;20052;-79
2021/12/02 11:12:05;;;;;;;9.02;6.22;;;;;;;;;;5062971;28;20033;-79
2021/12/02 11:14:32;;;;;;;9.93;5.90;;;;;;;;;;5062573;28;20109;-79
2021/12/02 11:17:11;;;;;;;11.10;5.75;;;;;;;;;;5062461;28;20084;-80
2021/12/02 11:19:37;;;;;;;10.77;5.82;;;;;;;;;;5062859;28;20052;-81
2021/12/02 11:22:10;;;;;;;8.13;4.85;;;;;;;;;;5062540;28;20092;-79
2021/12/02 11:24:36;;;;;;;;;;;;;;;;;;5062633;28;20456;-80
2021/12/02 11:27:30;;;;;;;8.05;4.88;;;;;;;;;;5062189;28;19908;-79
2021/12/02 11:29:56;;;;;;;8.13;5.63;;;;;;;;;;5064611;28;20040;-79
2021/12/02 11:32:25;;;;;;;8.30;4.50;;;;;;;;;;5067987;28;20037;-80
2021/12/02 11:35:01;;;;;;;7.35;3.95;;;;;;;;;;5045037;28;20037;-79
2021/12/02 11:37:27;;;;;;;4.60;2.97;;;;;;;;;;5061857;28;20041;-79
2021/12/02 11:39:58;;;;;;;4.70;2.65;;;;;;;;;;5062065;28;20047;-80
2021/12/02 11:42:25;;;;;;;3.88;2.35;;;;;;;;;;5044599;28;20095;-80
2021/12/02 11:44:51;;;;;;;6.07;2.70;;;;;;;;;;5044004;28;20552;-79
2021/12/02 11:47:17;;;;;;;3.67;2.20;;;;;;;;;;5044907;28;20061;-80
2021/12/02 11:49:43;;;;;;;4.40;2.53;;;;;;;;;;5062847;28;20044;-82
2021/12/02 11:52:09;;;;;;;4.78;2.88;;;;;;;;;;5062277;28;20058;-80
2021/12/02 11:54:36;;;;;;;3.60;2.10;;;;;;;;;;5055200;28;20056;-80
2021/12/02 11:57:03;;;;;;;5.47;3.58;;;;;;;;;;5061364;28;20084;-80
2021/12/02 11:59:29;;;;;;;11.52;4.40;;;;;;;;;;5062772;28;20041;-80
2021/12/02 12:01:55;;;;;;;5.90;3.67;;;;;;;;;;5077422;28;20093;-79
2021/12/02 12:04:21;;;;;;;6.57;3.85;;;;;;;;;;5061363;28;20067;-79
2021/12/02 12:06:48;;;;;;;9.25;4.80;;;;;;;;;;5049978;28;20484;-80
2021/12/02 12:09:18;;;;;;;7.65;5.13;;;;;;;;;;5062173;28;20040;-80
2021/12/02 12:11:45;;;;;;;7.82;4.90;;;;;;;;;;5062152;28;20040;-80
2021/12/02 12:14:13;;;;;;;14.82;5.22;;;;;;;;;;5045276;28;20049;-79
2021/12/02 12:16:43;;;;;;;8.20;5.55;;;;;;;;;;5044125;28;20056;-80
2021/12/02 12:19:18;;;;;;;14.68;5.65;;;;;;;;;;5045549;28;20048;-82
2021/12/02 12:21:44;;;;;;;10.27;5.70;;;;;;;;;;5062481;28;20075;-81
2021/12/02 12:24:14;;;;;;;7.35;5.40;;;;;;;;;;5043689;28;20045;-81
2021/12/02 12:26:42;;;;;;;7.78;5.28;;;;;;;;;;5045128;28;20120;-81
2021/12/02 12:29:09;;;;;;;10.55;5.70;;;;;;;;;;5044400;28;20414;-79
2021/12/02 12:31:41;;;;;;;9.65;5.28;;;;;;;;;;5062387;28;20048;-79
2021/12/02 12:34:26;;;;;;;12.68;6.75;;;;;;;;;;5061674;28;20041;-78
2021/12/02 12:36:52;;;;;;;8.82;5.28;;;;;;;;;;5062170;28;20402;-79
2021/12/02 12:39:18;;;;;;;14.85;5.85;;;;;;;;;;5045372;28;20040;-80
2021/12/02 12:41:45;;;;;;;10.77;5.78;;;;;;;;;;5068251;28;20059;-79
2021/12/02 12:44:11;;;;;;;10.00;5.90;;;;;;;;;;5070200;28;20083;-79
2021/12/02 12:46:38;;;;;;;10.25;5.55;;;;;;;;;;5069315;28;20032;-82
2021/12/02 12:49:24;;;;;;;11.80;6.35;;;;;;;;;;5069962;28;20053;-77
2021/12/02 12:51:53;;;;;;;11.75;6.00;;;;;;;;;;5066973;28;20044;-78
2021/12/02 12:54:20;;;;;;;9.15;5.55;;;;;;;;;;5065431;28;20040;-79
2021/12/02 12:56:47;;;;;;;7.85;4.28;;;;;;;;;;5049343;28;20033;-78
2021/12/02 12:59:16;;;;;;;12.75;5.10;;;;;;;;;;5075010;28;20044;-78
2021/12/02 13:02:01;;;;;;;16.05;5.30;;;;;;;;;;5050457;28;20041;-79
2021/12/02 13:04:27;;;;;;;8.52;4.53;;;;;;;;;;5047181;28;20041;-79
2021/12/02 13:06:58;;;;;;;7.80;4.32;;;;;;;;;;5047580;28;20041;-79
2021/12/02 13:12:54;;;;;;;7.13;4.63;;;;;;;;;;5052931;28;20041;-82
2021/12/02 13:15:22;;;;;;;9.70;5.30;;;;;;;;;;5065827;28;20055;-82
2021/12/02 13:17:50;;;;;;;9.80;5.90;;;;;;;;;;5048724;28;20361;-80
2021/12/02 13:20:19;;;;;;;11.45;6.18;;;;;;;;;;5048861;28;20044;-80
2021/12/02 13:22:45;;;;;;;9.18;6.07;;;;;;;;;;5065762;28;20460;-79
2021/12/02 13:25:27;;;;;;;9.77;6.30;;;;;;;;;;5050680;28;20045;-79
2021/12/02 13:27:53;;;;;;;16.27;6.72;;;;;;;;;;5063832;28;20049;-79
2021/12/02 13:30:19;;;;;;;11.52;6.70;;;;;;;;;;5063213;28;20130;-79
2021/12/02 13:32:52;;;;;;;9.55;6.55;;;;;;;;;;5047426;28;20480;-79
2021/12/02 13:35:25;;;;;;;9.23;6.03;;;;;;;;;;5045822;28;20091;-81
2021/12/02 13:38:02;;;;;;;10.77;6.03;;;;;;;;;;5070254;28;20040;-80
2021/12/02 13:40:33;;;;;;;11.98;6.30;;;;;;;;;;5059179;28;20045;-80
2021/12/02 13:42:59;;;;;;;11.68;6.15;;;;;;;;;;5070947;28;20453;-80
2021/12/02 13:45:26;;;;;;;8.82;5.35;;;;;;;;;;5048400;28;20090;-79
2021/12/02 13:48:05;;;;;;;8.10;5.38;;;;;;;;;;5066907;28;20041;-79
2021/12/02 13:50:35;;;;;;;12.25;5.60;;;;;;;;;;5066339;28;20452;-79
2021/12/02 13:53:01;;;;;;;9.75;5.72;;;;;;;;;;5066085;28;20041;-79
2021/12/02 13:55:29;;;;;;;9.43;6.07;;;;;;;;;;5049634;28;20037;-80
2021/12/02 13:58:04;;;;;;;8.55;6.15;;;;;;;;;;5066954;28;20067;-79
2021/12/02 14:00:31;;;;;;;7.65;5.53;;;;;;;;;;5054590;28;20041;-79
2021/12/02 14:03:01;;;;;;;8.35;5.22;;;;;;;;;;5063477;28;20044;-80
2021/12/02 14:05:27;;;;;;;11.23;5.00;;;;;;;;;;5074766;28;20041;-80
2021/12/02 14:07:54;;;;;;;11.77;4.68;;;;;;;;;;5045322;28;20041;-80
2021/12/02 14:10:22;;;;;;;12.25;5.13;;;;;;;;;;5062822;28;20075;-79
2021/12/02 14:12:55;;;;;;;9.30;4.63;;;;;;;;;;5062289;28;20033;-80
2021/12/02 14:15:25;;;;;;;9.32;5.10;;;;;;;;;;5063606;28;20045;-81
2021/12/02 14:17:51;;;;;;;9.07;4.43;;;;;;;;;;5064454;28;20408;-80
2021/12/02 14:20:17;;;;;;;7.40;4.85;;;;;;;;;;5064458;28;20044;-82
2021/12/02 14:22:44;;;;;;;6.70;4.38;;;;;;;;;;5063497;28;20464;-81
2021/12/02 14:25:10;;;;;;;6.63;4.75;;;;;;;;;;5046476;28;20491;-79
2021/12/02 14:27:36;;;;;;;14.13;4.53;;;;;;;;;;5069241;28;20041;-78
2021/12/02 14:30:12;;;;;;;7.97;4.40;;;;;;;;;;5053691;28;20040;-80
2021/12/02 14:32:39;;;;;;;8.93;4.65;;;;;;;;;;5062358;28;20072;-80
2021/12/02 14:35:10;;;;;;;7.53;4.55;;;;;;;;;;5061950;28;20070;-79
2021/12/02 14:37:36;;;;;;;8.85;5.30;;;;;;;;;;5045593;28;20376;-79
2021/12/02 14:40:03;;;;;;;9.40;4.88;;;;;;;;;;5046050;28;20045;-79
2021/12/02 14:42:29;;;;;;;7.05;4.55;;;;;;;;;;5063437;28;20052;-79
2021/12/02 14:44:55;;;;;;;7.15;5.10;;;;;;;;;;5063082;28;20429;-78
2021/12/02 14:47:21;;;;;;;9.30;5.70;;;;;;;;;;5045635;28;20089;-79
2021/12/02 14:49:48;;;;;;;7.90;4.68;;;;;;;;;;5064643;28;20120;-78
2021/12/02 14:52:16;;;;;;;7.05;4.10;;;;;;;;;;5062923;28;20425;-78
2021/12/02 14:54:47;;;;;;;9.80;5.13;;;;;;;;;;5061645;28;20041;-78
2021/12/02 14:57:13;;;;;;;6.63;3.92;;;;;;;;;;5063041;28;20091;-79
2021/12/02 14:59:39;;;;;;;6.45;3.65;;;;;;;;;;5063832;28;20040;-79
2021/12/02 15:02:12;;;;;;;5.50;3.63;;;;;;;;;;5044592;28;20045;-81
2021/12/02 15:04:38;;;;;;;8.30;3.90;;;;;;;;;;5062221;28;20058;-79
2021/12/02 15:07:08;;;;;;;6.40;3.80;;;;;;;;;;5061539;28;20384;-79